RJOO/ITM METAR and TAF weather

Enter ICAO airport designator
Station Type Date Time Source
RJOO METAR 2021/04/13 06:00 UTC NOAA

RJOO 130600Z 22005KT 180V260 9999 FEW025 SCT050 BKN080 20/13 Q1011 RMK 1CU025 3SC050 6AC080 A2987


Station Type Date Time Source
RJOO Decoded METAR 2021/04/13 06:00 UTC NOAA

Osaka International Airport, Japan (RJOO) 34-47N 135-27E 15M
Apr 13, 2021 - 02:00 AM EDT / 2021.04.13 0600 UTC
Wind: from the SW (220 degrees) at 6 MPH (5 KT) (direction variable):0
Visibility: greater than 7 mile(s):0
Sky conditions: mostly cloudy
Temperature: 68 F (20 C)
Dew Point: 55 F (13 C)
Relative Humidity: 64%
Pressure (altimeter): 29.85 in. Hg (1011 hPa)
ob: RJOO 130600Z 22005KT 180V260 9999 FEW025 SCT050 BKN080 20/13 Q1011 RMK 1CU025 3SC050 6AC080 A2987
cycle: 6

Station Type Date Time Source
RJOO TAF 2021/04/13 06:30 UTC NOAA

TAF RJOO 130505Z 1306/1412 14006KT 7000 -SHRA FEW005 SCT010 BKN020
BECMG 1309/1311 34010KT
TEMPO 1309/1313 3000 SHRA BR
TEMPO 1313/1315 4000 -SHRA BR

Example: see airport list